createdAt,value
2018-03-24T00:02:20.716Z,82.30
2018-03-24T00:04:47.915Z,82.20
2018-03-24T00:07:14.112Z,81.90
2018-03-24T00:09:42.411Z,82.40
2018-03-24T00:12:10.329Z,82.10
2018-03-24T00:14:37.051Z,82.10
2018-03-24T00:17:03.319Z,82.00
2018-03-24T00:31:49.846Z,81.40
2018-03-24T00:34:17.059Z,81.30
2018-03-24T00:36:44.424Z,81.60
2018-03-24T00:39:12.129Z,82.60
2018-03-24T00:41:38.407Z,81.70
2018-03-24T00:44:07.518Z,81.60
2018-03-24T00:46:35.137Z,82.30
2018-03-24T00:49:03.245Z,82.30
2018-03-24T00:51:31.078Z,81.90
2018-03-24T00:53:58.754Z,82.30
2018-03-24T00:56:25.801Z,82.80
2018-03-24T00:58:52.058Z,82.80
2018-03-24T01:01:19.825Z,83.30
2018-03-24T01:03:47.076Z,83.30
2018-03-24T01:06:14.223Z,83.30
2018-03-24T01:08:41.327Z,83.10
2018-03-24T01:11:10.130Z,82.90
2018-03-24T01:13:37.930Z,83.00
2018-03-24T01:16:08.667Z,82.90
2018-03-24T01:18:36.663Z,82.90
2018-03-24T01:21:05.540Z,83.10
2018-03-24T01:23:34.116Z,83.10
2018-03-24T01:26:00.423Z,82.90
2018-03-24T01:28:27.582Z,83.00
2018-03-24T01:30:55.330Z,82.80
2018-03-24T01:33:22.296Z,82.90
2018-03-24T01:35:49.219Z,82.40
2018-03-24T01:38:15.474Z,83.00
2018-03-24T01:40:43.583Z,83.10
2018-03-24T01:43:10.155Z,83.10
2018-03-24T01:45:38.139Z,83.10
2018-03-24T01:48:05.290Z,83.00
2018-03-24T01:50:31.507Z,83.20
2018-03-24T01:52:57.737Z,82.90
2018-03-24T01:55:25.843Z,83.00
2018-03-24T01:57:53.832Z,82.90
2018-03-24T02:00:20.989Z,83.50
2018-03-24T02:02:48.780Z,83.50
2018-03-24T02:05:16.049Z,83.50
2018-03-24T02:07:44.691Z,83.70
2018-03-24T02:10:12.351Z,84.80
2018-03-24T02:12:39.319Z,84.00
2018-03-24T02:15:07.879Z,83.90
2018-03-24T02:17:35.761Z,83.90
2018-03-24T02:20:02.561Z,83.90
2018-03-24T02:22:30.711Z,84.00
2018-03-24T02:25:02.152Z,84.30
2018-03-24T02:27:30.874Z,84.30
2018-03-24T02:29:59.954Z,84.00
2018-03-24T02:32:26.164Z,84.10
2018-03-24T02:34:52.401Z,84.10
2018-03-24T02:37:18.607Z,84.00
2018-03-24T02:39:47.499Z,84.00
2018-03-24T02:42:13.927Z,84.30
2018-03-24T02:44:41.550Z,84.30
2018-03-24T02:47:08.421Z,84.60
2018-03-24T02:49:36.248Z,85.20
2018-03-24T02:52:04.049Z,84.80
2018-03-24T02:54:30.430Z,85.30
2018-03-24T02:56:57.807Z,85.30
2018-03-24T02:59:24.839Z,85.00
2018-03-24T03:01:57.836Z,85.00
2018-03-24T03:04:25.432Z,85.50
2018-03-24T03:06:53.272Z,85.50
2018-03-24T03:09:20.599Z,85.50
2018-03-24T03:11:48.523Z,85.60
2018-03-24T03:14:16.323Z,86.30
2018-03-24T03:16:43.542Z,85.60
2018-03-24T03:19:11.074Z,86.30
2018-03-24T03:21:44.757Z,86.10
2018-03-24T03:24:14.120Z,85.60
2018-03-24T03:26:41.084Z,86.10
2018-03-24T03:29:08.143Z,86.10
2018-03-24T03:31:35.232Z,85.50
2018-03-24T03:34:03.080Z,85.40
2018-03-24T03:36:30.444Z,85.60
2018-03-24T03:38:57.592Z,85.60
2018-03-24T03:41:26.355Z,85.80
2018-03-24T03:43:53.403Z,85.30
2018-03-24T03:46:23.318Z,85.30
2018-03-24T03:48:51.368Z,85.30
2018-03-24T03:51:27.219Z,85.70
2018-03-24T03:53:56.090Z,85.30
2018-03-24T03:56:23.180Z,85.80
2018-03-24T03:58:50.256Z,85.30
2018-03-24T04:01:16.471Z,85.60
2018-03-24T04:03:43.682Z,87.00
2018-03-24T04:06:10.670Z,86.40
2018-03-24T04:08:36.987Z,86.40
2018-03-24T04:11:03.742Z,86.30
2018-03-24T04:13:30.987Z,86.40
2018-03-24T04:15:58.220Z,86.30
2018-03-24T04:18:24.402Z,86.90
2018-03-24T04:20:51.978Z,86.30
2018-03-24T04:23:21.197Z,86.50
2018-03-24T04:25:49.575Z,87.00
2018-03-24T04:28:16.653Z,87.10
2018-03-24T04:30:43.838Z,87.10
2018-03-24T04:33:10.261Z,86.60
2018-03-24T04:35:39.764Z,86.90
2018-03-24T04:38:06.909Z,86.90
2018-03-24T04:40:33.118Z,87.40
2018-03-24T04:43:00.664Z,87.10
2018-03-24T04:45:28.604Z,87.20
2018-03-24T04:47:56.989Z,87.10
2018-03-24T04:50:25.728Z,86.80
2018-03-24T04:52:52.953Z,86.40
2018-03-24T04:55:19.190Z,86.90
2018-03-24T04:57:47.823Z,87.30
2018-03-24T05:00:16.555Z,87.60
2018-03-24T05:02:42.750Z,87.60
2018-03-24T05:05:10.394Z,88.00
2018-03-24T05:07:39.889Z,88.00
2018-03-24T05:10:06.870Z,88.10
2018-03-24T05:12:33.090Z,87.60
2018-03-24T05:15:00.659Z,88.10
2018-03-24T05:17:27.700Z,87.30
2018-03-24T05:19:58.860Z,87.60
2018-03-24T05:22:26.584Z,88.30
2018-03-24T05:24:53.947Z,87.60
2018-03-24T05:27:21.766Z,87.10
2018-03-24T05:29:49.108Z,87.10
2018-03-24T05:42:01.666Z,87.00
2018-03-24T05:44:28.229Z,86.50
2018-03-24T05:46:55.872Z,87.00
2018-03-24T05:49:22.911Z,86.80
2018-03-24T05:51:49.471Z,85.50
2018-03-24T05:54:16.555Z,84.90
2018-03-24T05:56:43.690Z,85.00
2018-03-24T05:59:11.671Z,84.30
2018-03-24T06:01:39.672Z,84.80
2018-03-24T06:04:07.338Z,84.50
2018-03-24T06:06:33.538Z,83.10
2018-03-24T06:09:01.143Z,82.90
2018-03-24T06:11:27.412Z,83.40
2018-03-24T06:13:55.362Z,83.00
2018-03-24T06:16:24.001Z,80.10
2018-03-24T06:18:50.228Z,79.10
2018-03-24T06:21:17.599Z,79.80
2018-03-24T06:23:43.820Z,78.70
2018-03-24T06:26:10.053Z,78.40
2018-03-24T06:28:36.433Z,78.30
2018-03-24T06:31:06.482Z,77.50
2018-03-24T06:33:34.636Z,77.90
2018-03-24T06:36:02.083Z,77.30
2018-03-24T06:38:30.774Z,76.40
2018-03-24T06:41:00.688Z,76.30
2018-03-24T06:43:26.987Z,75.60
2018-03-24T06:45:54.296Z,74.60
2018-03-24T06:48:21.156Z,74.90
2018-03-24T06:50:49.001Z,72.50
2018-03-24T06:53:15.478Z,73.30
2018-03-24T06:55:42.481Z,71.70
2018-03-24T06:58:10.650Z,71.00
2018-03-24T07:00:37.904Z,70.10
2018-03-24T07:03:05.630Z,69.40
2018-03-24T07:05:36.974Z,69.40
2018-03-24T07:08:05.147Z,69.30
2018-03-24T07:10:31.360Z,68.80
2018-03-24T07:12:58.562Z,68.70
2018-03-24T07:15:26.137Z,65.90
2018-03-24T07:17:52.359Z,64.50
2018-03-24T07:20:21.322Z,63.30
2018-03-24T07:22:52.832Z,63.00
2018-03-24T07:25:20.659Z,62.00
2018-03-24T07:27:47.630Z,60.50
2018-03-24T07:30:14.929Z,60.50
2018-03-24T07:32:41.210Z,57.30
2018-03-24T07:35:09.123Z,57.10
2018-03-24T07:37:37.116Z,56.60
2018-03-24T07:40:05.223Z,56.70
2018-03-24T07:42:32.359Z,55.80
2018-03-24T07:44:58.598Z,56.20
2018-03-24T07:47:26.849Z,56.90
2018-03-24T07:49:53.892Z,55.80
2018-03-24T07:52:20.530Z,55.50
2018-03-24T07:54:46.956Z,53.90
2018-03-24T07:57:13.202Z,53.20
2018-03-24T07:59:44.826Z,53.30
2018-03-24T08:02:11.701Z,53.80
2018-03-24T08:04:38.663Z,52.90
2018-03-24T08:07:06.178Z,50.90
2018-03-24T08:09:33.353Z,51.00
2018-03-24T08:11:59.730Z,50.50
2018-03-24T08:14:25.967Z,50.60
2018-03-24T08:16:52.257Z,50.00
2018-03-24T08:19:18.436Z,50.20
2018-03-24T08:21:48.379Z,50.30
2018-03-24T08:24:15.340Z,48.80
2018-03-24T08:26:43.799Z,46.60
2018-03-24T08:38:55.482Z,46.00
2018-03-24T08:41:22.917Z,47.10
2018-03-24T08:43:49.622Z,48.80
2018-03-24T08:46:15.865Z,48.00
2018-03-24T08:48:43.399Z,77.20
2018-03-24T08:51:10.944Z,49.50
2018-03-24T08:53:38.577Z,52.00
2018-03-24T08:56:05.208Z,47.40
2018-03-24T08:58:32.934Z,48.30
2018-03-24T09:01:00.625Z,47.80
2018-03-24T09:03:27.881Z,52.00
2018-03-24T09:05:54.827Z,47.80
2018-03-24T09:08:21.853Z,47.90
2018-03-24T09:10:50.494Z,51.60
2018-03-24T09:13:18.465Z,47.10
2018-03-24T09:25:30.077Z,44.50
2018-03-24T09:27:57.390Z,45.60
2018-03-24T09:30:24.351Z,48.30
2018-03-24T09:32:54.440Z,42.50
2018-03-24T09:45:06.435Z,39.40
2018-03-24T09:47:32.674Z,40.50
2018-03-24T09:50:00.178Z,38.00
2018-03-24T09:52:27.831Z,36.80
2018-03-24T09:54:54.937Z,33.80
2018-03-24T09:57:21.197Z,32.90
2018-03-24T09:59:47.451Z,34.60
2018-03-24T10:02:13.725Z,34.00
2018-03-24T10:04:39.931Z,32.90
2018-03-24T10:07:06.960Z,33.80
2018-03-24T10:09:33.925Z,33.40
2018-03-24T10:12:00.979Z,32.40
2018-03-24T10:14:27.986Z,32.60
2018-03-24T10:16:55.131Z,32.70
2018-03-24T10:19:23.147Z,32.30
2018-03-24T10:25:00.687Z,47.20
2018-03-24T10:27:26.909Z,46.70
2018-03-24T10:29:55.039Z,31.30
2018-03-24T10:32:22.239Z,30.10
2018-03-24T10:34:54.617Z,31.20
2018-03-24T10:37:21.760Z,30.30
2018-03-24T10:39:47.960Z,31.30
2018-03-24T10:42:15.717Z,30.40
2018-03-24T10:44:43.105Z,29.40
2018-03-24T10:56:54.447Z,27.40
2018-03-24T10:59:20.684Z,26.50
2018-03-24T11:01:50.128Z,27.90
2018-03-24T11:04:16.419Z,29.80
2018-03-24T11:06:43.687Z,27.00
2018-03-24T11:09:12.316Z,29.40
2018-03-24T11:11:40.335Z,27.30
2018-03-24T11:14:06.556Z,29.90
2018-03-24T11:16:32.798Z,31.50
2018-03-24T11:18:59.160Z,33.10
2018-03-24T11:21:26.899Z,29.70
2018-03-24T11:23:53.115Z,27.50
2018-03-24T11:26:20.305Z,30.00
2018-03-24T11:28:46.556Z,34.70
2018-03-24T11:31:14.265Z,30.00
2018-03-24T11:33:40.557Z,31.70
2018-03-24T11:36:08.596Z,33.50
2018-03-24T11:38:34.869Z,37.30
2018-03-24T11:41:01.891Z,38.60
2018-03-24T11:43:29.809Z,36.10
2018-03-24T11:45:56.435Z,41.50
2018-03-24T11:48:24.662Z,37.90
2018-03-24T11:50:50.864Z,40.50
2018-03-24T11:53:20.320Z,37.90
2018-03-24T11:55:47.345Z,35.10
2018-03-24T11:58:14.368Z,34.50
2018-03-24T12:10:25.578Z,26.70
2018-03-24T12:12:53.056Z,34.20
2018-03-24T12:15:21.854Z,24.50
2018-03-24T12:17:48.635Z,24.20
2018-03-24T12:20:15.224Z,27.70
2018-03-24T12:22:42.983Z,29.80
2018-03-24T12:25:11.440Z,24.30
2018-03-24T12:27:39.586Z,23.00
2018-03-24T12:30:05.907Z,26.50
2018-03-24T12:32:32.194Z,29.90
2018-03-24T12:34:59.152Z,23.00
2018-03-24T12:37:25.370Z,26.30
2018-03-24T12:39:52.831Z,28.60
2018-03-24T12:42:19.044Z,22.60
2018-03-24T12:54:31.417Z,22.50
2018-03-24T12:56:59.262Z,23.40
2018-03-24T13:09:10.567Z,30.50
2018-03-24T13:11:36.810Z,30.10
2018-03-24T13:14:04.090Z,30.70
2018-03-24T13:16:30.683Z,29.00
2018-03-24T13:18:58.763Z,30.00
2018-03-24T13:21:27.370Z,30.40
2018-03-24T13:23:53.603Z,30.90
2018-03-24T13:26:20.657Z,30.70
2018-03-24T13:28:46.973Z,32.60
2018-03-24T13:31:13.281Z,32.70
2018-03-24T13:33:40.940Z,33.60
2018-03-24T13:36:07.718Z,33.40
2018-03-24T13:38:33.983Z,33.70
2018-03-24T13:41:02.424Z,33.20
2018-03-24T13:43:28.681Z,30.80
2018-03-24T13:45:55.856Z,32.00
2018-03-24T13:48:23.052Z,32.10
2018-03-24T13:50:50.282Z,30.90
2018-03-24T13:53:16.495Z,30.50
2018-03-24T13:55:43.740Z,28.60
2018-03-24T13:58:11.594Z,28.40
2018-03-24T14:00:38.597Z,29.30
2018-03-24T14:03:05.684Z,27.30
2018-03-24T14:05:32.635Z,28.00
2018-03-24T14:07:59.991Z,28.80
2018-03-24T14:10:27.078Z,28.80
2018-03-24T14:12:53.299Z,29.60
2018-03-24T14:15:19.563Z,30.10
2018-03-24T14:17:45.761Z,32.80
2018-03-24T14:20:12.806Z,32.90
2018-03-24T14:22:39.117Z,32.80
2018-03-24T14:25:05.360Z,30.30
2018-03-24T14:27:31.561Z,31.20
2018-03-24T14:29:59.487Z,30.40
2018-03-24T14:32:26.395Z,30.40
2018-03-24T14:34:53.559Z,32.00
2018-03-24T14:37:20.631Z,33.90
2018-03-24T14:39:47.729Z,33.40
2018-03-24T14:42:14.724Z,33.50
2018-03-24T14:44:41.495Z,34.10
2018-03-24T14:47:08.485Z,35.40
2018-03-24T14:49:36.652Z,34.50
2018-03-24T14:52:03.060Z,34.80
2018-03-24T14:54:31.164Z,35.30
2018-03-24T14:56:57.386Z,34.90
2018-03-24T14:59:24.545Z,34.50
2018-03-24T15:01:50.811Z,34.50
2018-03-24T15:04:17.030Z,34.90
2018-03-24T15:06:43.423Z,35.40
2018-03-24T15:09:10.420Z,36.10
2018-03-24T15:11:37.729Z,35.90
2018-03-24T15:14:04.739Z,36.10
2018-03-24T15:16:30.980Z,35.80
2018-03-24T15:18:58.434Z,36.20
2018-03-24T15:21:25.438Z,36.20
2018-03-24T15:23:51.744Z,35.50
2018-03-24T15:26:18.979Z,36.30
2018-03-24T15:28:59.030Z,37.50
2018-03-24T15:31:38.367Z,38.40
2018-03-24T15:34:17.468Z,38.20
2018-03-24T15:36:45.672Z,38.10
2018-03-24T15:39:12.652Z,38.70
2018-03-24T15:41:38.865Z,38.60
2018-03-24T15:44:05.080Z,39.10
2018-03-24T15:46:32.024Z,38.60
2018-03-24T15:48:58.985Z,38.40
2018-03-24T15:51:25.996Z,39.60
2018-03-24T15:53:52.210Z,39.60
2018-03-24T15:56:19.859Z,39.00
2018-03-24T15:58:46.218Z,37.90
2018-03-24T16:01:13.735Z,38.10
2018-03-24T16:03:40.070Z,38.20
2018-03-24T16:06:06.282Z,39.20
2018-03-24T16:08:32.464Z,39.20
2018-03-24T16:10:58.718Z,39.00
2018-03-24T16:13:26.578Z,39.70
2018-03-24T16:15:52.785Z,38.60
2018-03-24T16:18:18.970Z,38.00
2018-03-24T16:20:45.194Z,38.40
2018-03-24T16:23:11.401Z,38.40
2018-03-24T16:25:38.415Z,38.90
2018-03-24T16:28:04.708Z,38.80
2018-03-24T16:30:30.953Z,38.80
2018-03-24T16:32:58.014Z,39.40
2018-03-24T16:35:25.311Z,39.20
2018-03-24T16:37:51.494Z,39.30
2018-03-24T16:40:17.771Z,39.30
2018-03-24T16:42:45.255Z,40.20
2018-03-24T16:45:11.482Z,40.20
2018-03-24T16:47:37.803Z,40.60
2018-03-24T16:50:04.633Z,39.90
2018-03-24T16:52:31.737Z,40.00
2018-03-24T16:54:58.987Z,40.00
2018-03-24T16:57:25.223Z,40.60
2018-03-24T16:59:51.431Z,40.70
2018-03-24T17:02:17.719Z,41.20
2018-03-24T17:04:44.684Z,41.20
2018-03-24T17:07:10.961Z,41.20
2018-03-24T17:09:37.330Z,41.20
2018-03-24T17:12:03.574Z,42.20
2018-03-24T17:14:29.851Z,42.10
2018-03-24T17:16:56.458Z,42.10
2018-03-24T17:19:22.721Z,42.10
2018-03-24T17:21:49.013Z,42.10
2018-03-24T17:24:15.253Z,42.10
2018-03-24T17:26:41.436Z,42.00
2018-03-24T17:29:07.895Z,42.00
2018-03-24T17:31:34.094Z,41.90
2018-03-24T17:34:00.376Z,41.90
2018-03-24T17:36:26.610Z,42.70
2018-03-24T17:38:52.869Z,42.30
2018-03-24T17:41:19.169Z,42.40
2018-03-24T17:43:45.439Z,42.70
2018-03-24T17:46:11.667Z,43.70
2018-03-24T17:48:38.645Z,43.30
2018-03-24T17:51:04.900Z,43.50
2018-03-24T17:53:31.140Z,43.40
2018-03-24T18:05:42.444Z,44.20
2018-03-24T18:08:09.445Z,45.80
2018-03-24T18:20:20.749Z,45.70
2018-03-24T18:22:48.499Z,51.80
2018-03-24T18:25:16.573Z,51.10
2018-03-24T18:27:43.562Z,46.50
2018-03-24T18:30:09.773Z,46.50
2018-03-24T18:32:36.384Z,46.70
2018-03-24T18:35:03.353Z,48.90
2018-03-24T18:37:29.986Z,46.90
2018-03-24T18:39:56.200Z,49.40
2018-03-24T18:42:23.173Z,47.40
2018-03-24T18:44:50.129Z,47.20
2018-03-24T18:47:16.347Z,64.70
2018-03-24T18:49:42.910Z,48.20
2018-03-24T18:54:37.379Z,49.30
2018-03-24T18:57:05.585Z,47.50
2018-03-24T18:59:31.856Z,47.60
2018-03-24T19:01:58.157Z,48.10
2018-03-24T19:04:24.420Z,48.10
2018-03-24T19:06:51.047Z,49.40
2018-03-24T19:09:17.313Z,48.60
2018-03-24T19:11:43.551Z,51.00
2018-03-24T19:14:09.789Z,53.50
2018-03-24T19:16:36.081Z,48.70
2018-03-24T19:19:03.076Z,50.20
2018-03-24T19:21:29.276Z,54.60
2018-03-24T19:23:55.563Z,52.60
2018-03-24T19:26:23.183Z,53.60
2018-03-24T19:28:50.347Z,53.30
2018-03-24T19:31:16.749Z,51.10
2018-03-24T19:33:44.753Z,51.40
2018-03-24T19:36:12.221Z,51.10
2018-03-24T19:38:38.500Z,53.30
2018-03-24T19:41:05.496Z,52.20
2018-03-24T19:43:32.518Z,51.90
2018-03-24T19:45:59.319Z,52.00
2018-03-24T19:48:26.515Z,52.60
2018-03-24T19:50:54.079Z,53.10
2018-03-24T19:53:21.409Z,52.30
2018-03-24T19:55:48.431Z,52.00
2018-03-24T19:58:15.078Z,52.20
2018-03-24T20:00:42.700Z,52.50
2018-03-24T20:03:08.888Z,52.60
2018-03-24T20:05:35.935Z,52.70
2018-03-24T20:08:03.081Z,53.50
2018-03-24T20:10:30.160Z,52.80
2018-03-24T20:12:56.393Z,53.10
2018-03-24T20:15:22.612Z,53.50
2018-03-24T20:17:49.837Z,53.10
2018-03-24T20:20:17.045Z,53.00
2018-03-24T20:22:43.295Z,53.10
2018-03-24T20:27:38.202Z,53.60
2018-03-24T20:30:04.474Z,80.50
2018-03-24T20:32:32.341Z,54.40
2018-03-24T20:34:59.370Z,54.90
2018-03-24T20:37:25.999Z,54.60
2018-03-24T20:39:53.852Z,56.10
2018-03-24T20:42:20.854Z,56.40
2018-03-24T20:44:47.404Z,54.40
2018-03-24T20:47:13.640Z,54.60
2018-03-24T20:49:40.812Z,55.30
2018-03-24T20:52:07.735Z,55.10
2018-03-24T20:54:34.018Z,55.30
2018-03-24T20:57:00.960Z,54.90
2018-03-24T20:59:28.147Z,55.00
2018-03-24T21:01:54.747Z,54.80
2018-03-24T21:04:21.748Z,54.70
2018-03-24T21:06:48.038Z,60.50
2018-03-24T21:09:15.067Z,55.60
2018-03-24T21:11:42.041Z,55.30
2018-03-24T21:14:09.875Z,56.30
2018-03-24T21:16:38.707Z,56.10
2018-03-24T21:19:04.989Z,56.50
2018-03-24T21:21:32.152Z,56.30
2018-03-24T21:23:59.396Z,60.00
2018-03-24T21:26:27.478Z,56.00
2018-03-24T21:28:54.803Z,57.20
2018-03-24T21:31:21.120Z,64.20
2018-03-24T21:33:49.278Z,56.10
2018-03-24T21:36:17.713Z,58.50
2018-03-24T21:38:45.510Z,55.60
2018-03-24T21:41:12.701Z,56.20
2018-03-24T21:43:39.134Z,56.80
2018-03-24T21:46:06.779Z,56.20
2018-03-24T21:48:33.031Z,64.50
2018-03-24T21:51:00.635Z,57.20
2018-03-24T21:53:27.132Z,63.80
2018-03-24T21:55:54.035Z,61.70
2018-03-24T21:58:21.240Z,60.60
2018-03-24T22:00:47.886Z,58.80
2018-03-24T22:03:14.920Z,55.80
2018-03-24T22:05:42.901Z,59.20
2018-03-24T22:08:10.235Z,56.60
2018-03-24T22:10:37.583Z,57.60
2018-03-24T22:13:03.822Z,63.20
2018-03-24T22:15:31.777Z,58.70
2018-03-24T22:17:59.545Z,57.80
2018-03-24T22:20:26.533Z,58.20
2018-03-24T22:22:52.923Z,69.00
2018-03-24T22:25:22.124Z,68.10
2018-03-24T22:27:48.390Z,65.80
2018-03-24T22:30:15.234Z,63.30
2018-03-24T22:32:42.120Z,57.60
2018-03-24T22:35:08.883Z,59.40
2018-03-24T22:37:36.259Z,59.80
2018-03-24T22:40:03.391Z,57.00
2018-03-24T22:42:30.479Z,64.30
2018-03-24T22:54:41.754Z,69.50
2018-03-24T22:57:10.117Z,57.80
2018-03-24T22:59:37.540Z,57.50
2018-03-24T23:14:18.946Z,58.00
2018-03-24T23:21:42.745Z,93.40
2018-03-24T23:24:10.147Z,59.40
2018-03-24T23:29:05.973Z,58.90
2018-03-24T23:31:34.125Z,59.70
2018-03-24T23:34:02.301Z,58.70
2018-03-24T23:38:59.375Z,61.00
2018-03-24T23:41:28.060Z,58.40
2018-03-24T23:43:54.337Z,58.40
2018-03-24T23:46:21.016Z,58.60
2018-03-24T23:48:47.982Z,59.20
2018-03-24T23:51:16.886Z,59.20
2018-03-24T23:53:45.221Z,58.90
2018-03-24T23:56:12.786Z,58.60
2018-03-24T23:58:41.370Z,58.60
